sensor_id;sensor_type;location;lat;lon;timestamp;P1;durP1;ratioP1;P2;durP2;ratioP2
84019;SDS011;74102;49.084;13.694;2023-11-19T00:01:32;5.97;;;0.75;;
84019;SDS011;74102;49.084;13.694;2023-11-19T00:03:58;1.05;;;0.43;;
84019;SDS011;74102;49.084;13.694;2023-11-19T00:06:24;1.20;;;0.40;;
84019;SDS011;74102;49.084;13.694;2023-11-19T00:08:50;2.00;;;0.70;;
84019;SDS011;74102;49.084;13.694;2023-11-19T00:11:15;1.98;;;0.65;;
84019;SDS011;74102;49.084;13.694;2023-11-19T00:13:41;3.22;;;0.98;;
84019;SDS011;74102;49.084;13.694;2023-11-19T00:16:07;7.93;;;3.17;;
84019;SDS011;74102;49.084;13.694;2023-11-19T00:18:34;9.68;;;3.55;;
84019;SDS011;74102;49.084;13.694;2023-11-19T00:21:00;14.13;;;5.75;;
84019;SDS011;74102;49.084;13.694;2023-11-19T00:23:27;3.42;;;1.40;;
84019;SDS011;74102;49.084;13.694;2023-11-19T00:25:52;2.38;;;0.88;;
84019;SDS011;74102;49.084;13.694;2023-11-19T00:28:18;1.85;;;0.65;;
84019;SDS011;74102;49.084;13.694;2023-11-19T00:30:43;2.60;;;0.85;;
84019;SDS011;74102;49.084;13.694;2023-11-19T00:33:08;2.05;;;0.70;;
84019;SDS011;74102;49.084;13.694;2023-11-19T00:35:34;0.68;;;0.50;;
84019;SDS011;74102;49.084;13.694;2023-11-19T00:37:59;0.95;;;0.50;;
84019;SDS011;74102;49.084;13.694;2023-11-19T00:40:25;0.80;;;0.50;;
84019;SDS011;74102;49.084;13.694;2023-11-19T00:42:51;1.17;;;0.50;;
84019;SDS011;74102;49.084;13.694;2023-11-19T00:45:16;1.25;;;0.57;;
84019;SDS011;74102;49.084;13.694;2023-11-19T00:47:42;1.52;;;0.60;;
84019;SDS011;74102;49.084;13.694;2023-11-19T00:50:08;0.70;;;0.47;;
84019;SDS011;74102;49.084;13.694;2023-11-19T00:52:36;2.13;;;0.60;;
84019;SDS011;74102;49.084;13.694;2023-11-19T00:55:03;0.93;;;0.50;;
84019;SDS011;74102;49.084;13.694;2023-11-19T00:57:29;0.77;;;0.50;;
84019;SDS011;74102;49.084;13.694;2023-11-19T00:59:57;1.05;;;0.50;;
84019;SDS011;74102;49.084;13.694;2023-11-19T01:02:23;0.40;;;0.30;;
84019;SDS011;74102;49.084;13.694;2023-11-19T01:04:49;0.65;;;0.50;;
84019;SDS011;74102;49.084;13.694;2023-11-19T01:07:15;1.05;;;0.60;;
84019;SDS011;74102;49.084;13.694;2023-11-19T01:09:44;0.40;;;0.40;;
84019;SDS011;74102;49.084;13.694;2023-11-19T01:12:09;0.60;;;0.43;;
84019;SDS011;74102;49.084;13.694;2023-11-19T01:14:38;0.55;;;0.30;;
84019;SDS011;74102;49.084;13.694;2023-11-19T01:17:03;1.27;;;0.55;;
84019;SDS011;74102;49.084;13.694;2023-11-19T01:19:29;1.02;;;0.40;;
84019;SDS011;74102;49.084;13.694;2023-11-19T01:21:55;1.05;;;0.55;;
84019;SDS011;74102;49.084;13.694;2023-11-19T01:24:20;1.00;;;0.55;;
84019;SDS011;74102;49.084;13.694;2023-11-19T01:26:46;0.73;;;0.50;;
84019;SDS011;74102;49.084;13.694;2023-11-19T01:29:12;1.33;;;0.60;;
84019;SDS011;74102;49.084;13.694;2023-11-19T01:31:45;0.80;;;0.47;;
84019;SDS011;74102;49.084;13.694;2023-11-19T01:34:16;0.30;;;0.30;;
84019;SDS011;74102;49.084;13.694;2023-11-19T01:36:41;0.82;;;0.40;;
84019;SDS011;74102;49.084;13.694;2023-11-19T01:39:07;0.45;;;0.25;;
84019;SDS011;74102;49.084;13.694;2023-11-19T01:41:35;0.40;;;0.25;;
84019;SDS011;74102;49.084;13.694;2023-11-19T01:44:01;0.43;;;0.20;;
84019;SDS011;74102;49.084;13.694;2023-11-19T01:46:27;0.47;;;0.22;;
84019;SDS011;74102;49.084;13.694;2023-11-19T01:48:53;0.55;;;0.30;;
84019;SDS011;74102;49.084;13.694;2023-11-19T01:51:20;1.13;;;0.50;;
84019;SDS011;74102;49.084;13.694;2023-11-19T01:53:46;0.30;;;0.30;;
84019;SDS011;74102;49.084;13.694;2023-11-19T01:56:14;0.73;;;0.50;;
84019;SDS011;74102;49.084;13.694;2023-11-19T01:58:41;0.65;;;0.40;;
84019;SDS011;74102;49.084;13.694;2023-11-19T02:01:09;1.13;;;0.50;;
84019;SDS011;74102;49.084;13.694;2023-11-19T02:03:36;0.52;;;0.30;;
84019;SDS011;74102;49.084;13.694;2023-11-19T02:06:02;0.68;;;0.30;;
84019;SDS011;74102;49.084;13.694;2023-11-19T02:08:29;0.75;;;0.35;;
84019;SDS011;74102;49.084;13.694;2023-11-19T02:10:55;0.65;;;0.32;;
84019;SDS011;74102;49.084;13.694;2023-11-19T02:13:25;0.40;;;0.40;;
84019;SDS011;74102;49.084;13.694;2023-11-19T02:15:51;0.10;;;0.10;;
84019;SDS011;74102;49.084;13.694;2023-11-19T02:18:17;0.88;;;0.43;;
84019;SDS011;74102;49.084;13.694;2023-11-19T02:20:44;0.30;;;0.30;;
84019;SDS011;74102;49.084;13.694;2023-11-19T02:23:09;0.30;;;0.30;;
84019;SDS011;74102;49.084;13.694;2023-11-19T02:25:35;0.38;;;0.30;;
84019;SDS011;74102;49.084;13.694;2023-11-19T02:28:01;0.30;;;0.30;;
84019;SDS011;74102;49.084;13.694;2023-11-19T02:30:28;0.43;;;0.40;;
84019;SDS011;74102;49.084;13.694;2023-11-19T02:32:57;0.30;;;0.30;;
84019;SDS011;74102;49.084;13.694;2023-11-19T02:35:30;0.38;;;0.30;;
84019;SDS011;74102;49.084;13.694;2023-11-19T02:37:56;0.88;;;0.47;;
84019;SDS011;74102;49.084;13.694;2023-11-19T02:40:22;0.60;;;0.40;;
84019;SDS011;74102;49.084;13.694;2023-11-19T02:42:49;0.70;;;0.32;;
84019;SDS011;74102;49.084;13.694;2023-11-19T02:45:15;0.85;;;0.30;;
84019;SDS011;74102;49.084;13.694;2023-11-19T02:47:41;0.30;;;0.10;;
84019;SDS011;74102;49.084;13.694;2023-11-19T02:50:12;0.32;;;0.30;;
84019;SDS011;74102;49.084;13.694;2023-11-19T02:52:42;0.40;;;0.40;;
84019;SDS011;74102;49.084;13.694;2023-11-19T02:55:09;0.52;;;0.40;;
84019;SDS011;74102;49.084;13.694;2023-11-19T02:57:38;0.30;;;0.30;;
84019;SDS011;74102;49.084;13.694;2023-11-19T03:00:05;1.27;;;0.60;;
84019;SDS011;74102;49.084;13.694;2023-11-19T03:02:39;2.53;;;0.80;;
84019;SDS011;74102;49.084;13.694;2023-11-19T03:05:10;0.98;;;0.50;;
84019;SDS011;74102;49.084;13.694;2023-11-19T03:07:36;0.80;;;0.35;;
84019;SDS011;74102;49.084;13.694;2023-11-19T03:10:02;0.52;;;0.30;;
84019;SDS011;74102;49.084;13.694;2023-11-19T03:12:30;1.27;;;0.57;;
84019;SDS011;74102;49.084;13.694;2023-11-19T03:14:56;0.65;;;0.35;;
84019;SDS011;74102;49.084;13.694;2023-11-19T03:17:21;0.38;;;0.30;;
84019;SDS011;74102;49.084;13.694;2023-11-19T03:19:46;0.35;;;0.35;;
84019;SDS011;74102;49.084;13.694;2023-11-19T03:22:13;0.30;;;0.30;;
84019;SDS011;74102;49.084;13.694;2023-11-19T03:24:39;0.73;;;0.38;;
84019;SDS011;74102;49.084;13.694;2023-11-19T03:27:04;0.32;;;0.32;;
84019;SDS011;74102;49.084;13.694;2023-11-19T03:29:30;0.30;;;0.30;;
84019;SDS011;74102;49.084;13.694;2023-11-19T03:31:55;0.40;;;0.30;;
84019;SDS011;74102;49.084;13.694;2023-11-19T03:34:21;0.38;;;0.30;;
84019;SDS011;74102;49.084;13.694;2023-11-19T03:36:46;0.20;;;0.20;;
84019;SDS011;74102;49.084;13.694;2023-11-19T03:39:12;0.20;;;0.20;;
84019;SDS011;74102;49.084;13.694;2023-11-19T03:41:37;0.35;;;0.30;;
84019;SDS011;74102;49.084;13.694;2023-11-19T03:44:03;0.13;;;0.13;;
84019;SDS011;74102;49.084;13.694;2023-11-19T03:46:28;0.10;;;0.08;;
84019;SDS011;74102;49.084;13.694;2023-11-19T03:48:55;0.57;;;0.20;;
84019;SDS011;74102;49.084;13.694;2023-11-19T03:51:20;0.10;;;0.10;;
84019;SDS011;74102;49.084;13.694;2023-11-19T03:53:46;0.15;;;0.08;;
84019;SDS011;74102;49.084;13.694;2023-11-19T03:56:11;0.30;;;0.30;;
84019;SDS011;74102;49.084;13.694;2023-11-19T03:58:37;0.20;;;0.20;;
84019;SDS011;74102;49.084;13.694;2023-11-19T04:01:10;0.55;;;0.35;;
84019;SDS011;74102;49.084;13.694;2023-11-19T04:03:37;0.80;;;0.40;;
84019;SDS011;74102;49.084;13.694;2023-11-19T04:06:03;0.10;;;0.10;;
84019;SDS011;74102;49.084;13.694;2023-11-19T04:08:29;0.93;;;0.50;;
84019;SDS011;74102;49.084;13.694;2023-11-19T04:10:55;1.00;;;0.40;;
84019;SDS011;74102;49.084;13.694;2023-11-19T04:13:20;0.82;;;0.40;;
84019;SDS011;74102;49.084;13.694;2023-11-19T04:15:46;3.20;;;0.70;;
84019;SDS011;74102;49.084;13.694;2023-11-19T04:18:11;2.05;;;0.80;;
84019;SDS011;74102;49.084;13.694;2023-11-19T04:20:36;2.30;;;0.73;;
84019;SDS011;74102;49.084;13.694;2023-11-19T04:23:02;7.45;;;2.22;;
84019;SDS011;74102;49.084;13.694;2023-11-19T04:25:27;6.00;;;1.58;;
84019;SDS011;74102;49.084;13.694;2023-11-19T04:27:53;4.15;;;1.30;;
84019;SDS011;74102;49.084;13.694;2023-11-19T04:30:19;3.63;;;1.40;;
84019;SDS011;74102;49.084;13.694;2023-11-19T04:32:44;4.45;;;1.45;;
84019;SDS011;74102;49.084;13.694;2023-11-19T04:35:10;2.15;;;0.85;;
84019;SDS011;74102;49.084;13.694;2023-11-19T04:37:35;3.22;;;1.20;;
84019;SDS011;74102;49.084;13.694;2023-11-19T04:40:01;3.10;;;1.10;;
84019;SDS011;74102;49.084;13.694;2023-11-19T04:42:27;2.97;;;1.15;;
84019;SDS011;74102;49.084;13.694;2023-11-19T04:44:52;1.42;;;0.50;;
84019;SDS011;74102;49.084;13.694;2023-11-19T04:47:18;2.47;;;0.80;;
84019;SDS011;74102;49.084;13.694;2023-11-19T04:49:43;2.50;;;1.10;;
84019;SDS011;74102;49.084;13.694;2023-11-19T04:52:09;1.98;;;0.60;;
84019;SDS011;74102;49.084;13.694;2023-11-19T04:54:34;1.42;;;0.70;;
84019;SDS011;74102;49.084;13.694;2023-11-19T04:57:00;0.98;;;0.60;;
84019;SDS011;74102;49.084;13.694;2023-11-19T04:59:25;1.05;;;0.40;;
84019;SDS011;74102;49.084;13.694;2023-11-19T05:01:52;0.88;;;0.60;;
84019;SDS011;74102;49.084;13.694;2023-11-19T05:04:17;0.77;;;0.52;;
84019;SDS011;74102;49.084;13.694;2023-11-19T05:06:43;0.30;;;0.30;;
84019;SDS011;74102;49.084;13.694;2023-11-19T05:09:09;2.20;;;0.70;;
84019;SDS011;74102;49.084;13.694;2023-11-19T05:11:34;0.30;;;0.25;;
84019;SDS011;74102;49.084;13.694;2023-11-19T05:14:02;0.55;;;0.28;;
84019;SDS011;74102;49.084;13.694;2023-11-19T05:18:56;0.03;;;0.03;;
84019;SDS011;74102;49.084;13.694;2023-11-19T05:21:22;0.20;;;0.20;;
84019;SDS011;74102;49.084;13.694;2023-11-19T05:23:48;0.35;;;0.30;;
84019;SDS011;74102;49.084;13.694;2023-11-19T05:26:18;0.10;;;0.10;;
84019;SDS011;74102;49.084;13.694;2023-11-19T05:31:10;0.28;;;0.10;;
84019;SDS011;74102;49.084;13.694;2023-11-19T05:33:35;0.30;;;0.30;;
84019;SDS011;74102;49.084;13.694;2023-11-19T05:36:01;0.30;;;0.30;;
84019;SDS011;74102;49.084;13.694;2023-11-19T05:38:28;0.28;;;0.20;;
84019;SDS011;74102;49.084;13.694;2023-11-19T05:40:54;1.77;;;0.70;;
84019;SDS011;74102;49.084;13.694;2023-11-19T05:43:19;3.13;;;1.20;;
84019;SDS011;74102;49.084;13.694;2023-11-19T05:45:46;5.10;;;1.75;;
84019;SDS011;74102;49.084;13.694;2023-11-19T05:48:11;4.57;;;2.03;;
84019;SDS011;74102;49.084;13.694;2023-11-19T05:50:37;4.28;;;1.70;;
84019;SDS011;74102;49.084;13.694;2023-11-19T05:53:02;2.42;;;1.00;;
84019;SDS011;74102;49.084;13.694;2023-11-19T05:55:30;2.58;;;0.90;;
84019;SDS011;74102;49.084;13.694;2023-11-19T05:57:56;0.77;;;0.40;;
84019;SDS011;74102;49.084;13.694;2023-11-19T06:00:21;2.55;;;0.95;;
84019;SDS011;74102;49.084;13.694;2023-11-19T06:02:47;1.70;;;0.70;;
84019;SDS011;74102;49.084;13.694;2023-11-19T06:05:12;1.52;;;0.70;;
84019;SDS011;74102;49.084;13.694;2023-11-19T06:07:38;4.10;;;1.65;;
84019;SDS011;74102;49.084;13.694;2023-11-19T06:10:04;2.85;;;1.20;;
84019;SDS011;74102;49.084;13.694;2023-11-19T06:12:31;2.70;;;1.10;;
84019;SDS011;74102;49.084;13.694;2023-11-19T06:14:59;2.25;;;1.02;;
84019;SDS011;74102;49.084;13.694;2023-11-19T06:17:25;3.38;;;1.20;;
84019;SDS011;74102;49.084;13.694;2023-11-19T06:19:50;3.88;;;1.92;;
84019;SDS011;74102;49.084;13.694;2023-11-19T06:22:16;4.20;;;1.63;;
84019;SDS011;74102;49.084;13.694;2023-11-19T06:24:41;4.53;;;1.30;;
84019;SDS011;74102;49.084;13.694;2023-11-19T06:27:07;3.00;;;1.02;;
84019;SDS011;74102;49.084;13.694;2023-11-19T06:29:33;2.47;;;0.68;;
84019;SDS011;74102;49.084;13.694;2023-11-19T06:31:58;4.53;;;1.20;;
84019;SDS011;74102;49.084;13.694;2023-11-19T06:34:23;6.32;;;2.45;;
84019;SDS011;74102;49.084;13.694;2023-11-19T06:36:49;10.40;;;3.33;;
84019;SDS011;74102;49.084;13.694;2023-11-19T06:39:14;6.88;;;1.75;;
84019;SDS011;74102;49.084;13.694;2023-11-19T06:41:44;4.30;;;1.48;;
84019;SDS011;74102;49.084;13.694;2023-11-19T06:44:10;4.63;;;1.40;;
84019;SDS011;74102;49.084;13.694;2023-11-19T12:33:15;5.55;;;2.80;;
84019;SDS011;74102;49.084;13.694;2023-11-19T12:35:42;8.55;;;3.00;;
84019;SDS011;74102;49.084;13.694;2023-11-19T12:38:18;6.78;;;3.17;;
84019;SDS011;74102;49.084;13.694;2023-11-19T13:49:34;6.97;;;3.03;;
84019;SDS011;74102;49.084;13.694;2023-11-19T13:51:59;5.03;;;1.58;;
84019;SDS011;74102;49.084;13.694;2023-11-19T13:54:25;12.30;;;5.63;;
84019;SDS011;74102;49.084;13.694;2023-11-19T14:00:30;5.13;;;1.60;;
84019;SDS011;74102;49.084;13.694;2023-11-19T14:02:58;3.10;;;1.00;;
84019;SDS011;74102;49.084;13.694;2023-11-19T14:19:01;4.20;;;1.73;;
84019;SDS011;74102;49.084;13.694;2023-11-19T14:24:49;6.60;;;2.30;;
84019;SDS011;74102;49.084;13.694;2023-11-19T14:27:14;4.97;;;1.83;;
84019;SDS011;74102;49.084;13.694;2023-11-19T14:29:42;9.55;;;3.78;;
84019;SDS011;74102;49.084;13.694;2023-11-19T14:32:09;3.53;;;1.52;;
84019;SDS011;74102;49.084;13.694;2023-11-19T14:34:35;7.18;;;2.30;;
84019;SDS011;74102;49.084;13.694;2023-11-19T14:37:03;6.90;;;1.90;;
84019;SDS011;74102;49.084;13.694;2023-11-19T14:39:49;5.85;;;2.58;;
84019;SDS011;74102;49.084;13.694;2023-11-19T14:42:16;5.13;;;1.77;;
84019;SDS011;74102;49.084;13.694;2023-11-19T14:48:11;10.07;;;1.52;;
84019;SDS011;74102;49.084;13.694;2023-11-19T14:50:36;3.60;;;1.27;;
84019;SDS011;74102;49.084;13.694;2023-11-19T14:53:02;8.48;;;3.63;;
84019;SDS011;74102;49.084;13.694;2023-11-19T14:55:31;4.20;;;1.85;;
84019;SDS011;74102;49.084;13.694;2023-11-19T14:58:02;4.45;;;1.50;;
84019;SDS011;74102;49.084;13.694;2023-11-19T15:00:28;3.25;;;1.02;;
84019;SDS011;74102;49.084;13.694;2023-11-19T15:02:53;5.47;;;2.35;;
84019;SDS011;74102;49.084;13.694;2023-11-19T15:05:19;2.85;;;1.17;;
84019;SDS011;74102;49.084;13.694;2023-11-19T15:07:52;2.85;;;1.23;;
84019;SDS011;74102;49.084;13.694;2023-11-19T15:10:20;4.55;;;1.27;;
84019;SDS011;74102;49.084;13.694;2023-11-19T15:12:46;12.02;;;3.97;;
84019;SDS011;74102;49.084;13.694;2023-11-19T15:15:12;2.90;;;1.30;;
84019;SDS011;74102;49.084;13.694;2023-11-19T15:17:40;3.58;;;1.40;;
84019;SDS011;74102;49.084;13.694;2023-11-19T15:20:09;4.22;;;1.55;;
84019;SDS011;74102;49.084;13.694;2023-11-19T15:22:35;20.73;;;8.90;;
84019;SDS011;74102;49.084;13.694;2023-11-19T15:25:01;10.07;;;3.80;;
84019;SDS011;74102;49.084;13.694;2023-11-19T15:27:30;6.88;;;2.53;;
84019;SDS011;74102;49.084;13.694;2023-11-19T15:29:56;12.13;;;4.95;;
84019;SDS011;74102;49.084;13.694;2023-11-19T15:32:24;2.95;;;1.15;;
84019;SDS011;74102;49.084;13.694;2023-11-19T15:34:49;25.63;;;10.80;;
84019;SDS011;74102;49.084;13.694;2023-11-19T15:37:15;7.38;;;2.20;;
84019;SDS011;74102;49.084;13.694;2023-11-19T15:39:42;11.23;;;2.90;;
84019;SDS011;74102;49.084;13.694;2023-11-19T15:42:24;18.63;;;6.20;;
84019;SDS011;74102;49.084;13.694;2023-11-19T15:44:52;5.47;;;1.20;;
84019;SDS011;74102;49.084;13.694;2023-11-19T15:47:27;11.60;;;4.95;;
84019;SDS011;74102;49.084;13.694;2023-11-19T15:56:18;11.50;;;5.13;;
84019;SDS011;74102;49.084;13.694;2023-11-19T15:58:51;7.68;;;3.85;;
84019;SDS011;74102;49.084;13.694;2023-11-19T16:01:17;17.35;;;7.32;;
84019;SDS011;74102;49.084;13.694;2023-11-19T16:03:43;7.50;;;3.03;;
84019;SDS011;74102;49.084;13.694;2023-11-19T16:06:08;7.53;;;3.13;;
84019;SDS011;74102;49.084;13.694;2023-11-19T16:08:38;10.38;;;4.72;;
84019;SDS011;74102;49.084;13.694;2023-11-19T16:11:04;8.93;;;3.80;;
84019;SDS011;74102;49.084;13.694;2023-11-19T16:13:30;20.70;;;9.95;;
84019;SDS011;74102;49.084;13.694;2023-11-19T16:15:56;17.65;;;7.20;;
84019;SDS011;74102;49.084;13.694;2023-11-19T16:18:22;6.93;;;2.65;;
84019;SDS011;74102;49.084;13.694;2023-11-19T16:20:50;10.02;;;3.78;;
84019;SDS011;74102;49.084;13.694;2023-11-19T16:23:19;14.38;;;3.85;;
84019;SDS011;74102;49.084;13.694;2023-11-19T16:25:44;13.07;;;5.00;;
84019;SDS011;74102;49.084;13.694;2023-11-19T16:28:24;16.48;;;5.93;;
84019;SDS011;74102;49.084;13.694;2023-11-19T16:30:49;6.78;;;3.10;;
84019;SDS011;74102;49.084;13.694;2023-11-19T16:33:18;6.95;;;3.22;;
84019;SDS011;74102;49.084;13.694;2023-11-19T16:35:44;14.43;;;6.82;;
84019;SDS011;74102;49.084;13.694;2023-11-19T16:38:17;6.00;;;2.83;;
84019;SDS011;74102;49.084;13.694;2023-11-19T16:43:54;10.38;;;4.03;;
84019;SDS011;74102;49.084;13.694;2023-11-19T16:46:24;10.18;;;4.32;;
84019;SDS011;74102;49.084;13.694;2023-11-19T16:48:50;20.70;;;8.30;;
84019;SDS011;74102;49.084;13.694;2023-11-19T16:51:18;26.98;;;13.20;;
84019;SDS011;74102;49.084;13.694;2023-11-19T16:53:45;6.68;;;3.92;;
84019;SDS011;74102;49.084;13.694;2023-11-19T16:56:11;8.82;;;4.18;;
84019;SDS011;74102;49.084;13.694;2023-11-19T16:58:37;13.45;;;7.60;;
84019;SDS011;74102;49.084;13.694;2023-11-19T17:01:05;13.68;;;6.88;;
84019;SDS011;74102;49.084;13.694;2023-11-19T17:03:35;8.10;;;3.67;;
84019;SDS011;74102;49.084;13.694;2023-11-19T17:06:04;18.45;;;8.02;;
84019;SDS011;74102;49.084;13.694;2023-11-19T17:08:33;14.40;;;5.43;;
84019;SDS011;74102;49.084;13.694;2023-11-19T17:11:00;12.70;;;5.82;;
84019;SDS011;74102;49.084;13.694;2023-11-19T17:13:33;14.93;;;5.85;;
84019;SDS011;74102;49.084;13.694;2023-11-19T17:15:59;22.00;;;12.65;;
84019;SDS011;74102;49.084;13.694;2023-11-19T17:18:24;9.18;;;5.15;;
84019;SDS011;74102;49.084;13.694;2023-11-19T17:20:50;6.15;;;2.35;;
84019;SDS011;74102;49.084;13.694;2023-11-19T17:23:26;8.90;;;3.33;;
84019;SDS011;74102;49.084;13.694;2023-11-19T17:25:52;12.20;;;4.53;;
84019;SDS011;74102;49.084;13.694;2023-11-19T17:28:18;17.45;;;6.13;;
84019;SDS011;74102;49.084;13.694;2023-11-19T17:30:44;18.55;;;6.63;;
84019;SDS011;74102;49.084;13.694;2023-11-19T17:33:12;19.27;;;7.07;;
84019;SDS011;74102;49.084;13.694;2023-11-19T17:35:47;19.40;;;6.22;;
84019;SDS011;74102;49.084;13.694;2023-11-19T17:38:13;24.30;;;6.97;;
84019;SDS011;74102;49.084;13.694;2023-11-19T17:40:38;7.30;;;3.05;;
84019;SDS011;74102;49.084;13.694;2023-11-19T17:43:04;9.55;;;2.78;;
84019;SDS011;74102;49.084;13.694;2023-11-19T17:45:29;11.73;;;6.90;;
84019;SDS011;74102;49.084;13.694;2023-11-19T17:47:55;6.35;;;3.45;;
84019;SDS011;74102;49.084;13.694;2023-11-19T17:50:21;10.32;;;4.32;;
84019;SDS011;74102;49.084;13.694;2023-11-19T17:52:47;5.28;;;2.40;;
84019;SDS011;74102;49.084;13.694;2023-11-19T17:55:12;6.20;;;2.45;;
84019;SDS011;74102;49.084;13.694;2023-11-19T17:57:39;11.35;;;3.80;;
84019;SDS011;74102;49.084;13.694;2023-11-19T18:00:09;7.82;;;2.40;;
84019;SDS011;74102;49.084;13.694;2023-11-19T18:02:45;10.45;;;4.22;;
84019;SDS011;74102;49.084;13.694;2023-11-19T18:05:17;11.32;;;3.35;;
84019;SDS011;74102;49.084;13.694;2023-11-19T18:07:48;17.10;;;5.93;;
84019;SDS011;74102;49.084;13.694;2023-11-19T18:10:14;13.88;;;3.90;;
84019;SDS011;74102;49.084;13.694;2023-11-19T18:12:48;13.55;;;4.50;;
84019;SDS011;74102;49.084;13.694;2023-11-19T18:15:13;27.52;;;10.93;;
84019;SDS011;74102;49.084;13.694;2023-11-19T18:20:47;13.23;;;4.68;;
84019;SDS011;74102;49.084;13.694;2023-11-19T18:23:13;22.15;;;5.88;;
84019;SDS011;74102;49.084;13.694;2023-11-19T18:25:41;12.48;;;4.80;;
84019;SDS011;74102;49.084;13.694;2023-11-19T18:28:07;10.75;;;2.50;;
84019;SDS011;74102;49.084;13.694;2023-11-19T18:30:35;7.50;;;2.83;;
84019;SDS011;74102;49.084;13.694;2023-11-19T18:33:00;15.05;;;5.05;;
84019;SDS011;74102;49.084;13.694;2023-11-19T18:35:26;16.27;;;5.65;;
84019;SDS011;74102;49.084;13.694;2023-11-19T18:40:56;16.23;;;7.63;;
84019;SDS011;74102;49.084;13.694;2023-11-19T18:43:22;18.35;;;5.63;;
84019;SDS011;74102;49.084;13.694;2023-11-19T18:45:47;13.00;;;5.35;;
84019;SDS011;74102;49.084;13.694;2023-11-19T18:48:13;9.55;;;3.67;;
84019;SDS011;74102;49.084;13.694;2023-11-19T18:50:38;21.58;;;7.93;;
84019;SDS011;74102;49.084;13.694;2023-11-19T18:53:04;14.43;;;3.70;;
84019;SDS011;74102;49.084;13.694;2023-11-19T18:55:30;17.73;;;6.45;;
84019;SDS011;74102;49.084;13.694;2023-11-19T18:57:55;24.45;;;8.40;;
84019;SDS011;74102;49.084;13.694;2023-11-19T19:00:24;18.02;;;7.00;;
84019;SDS011;74102;49.084;13.694;2023-11-19T19:02:51;13.70;;;5.13;;
84019;SDS011;74102;49.084;13.694;2023-11-19T19:05:16;17.38;;;7.72;;
84019;SDS011;74102;49.084;13.694;2023-11-19T19:07:42;24.90;;;12.38;;
84019;SDS011;74102;49.084;13.694;2023-11-19T19:10:08;16.63;;;6.10;;
84019;SDS011;74102;49.084;13.694;2023-11-19T19:12:39;11.13;;;4.80;;
84019;SDS011;74102;49.084;13.694;2023-11-19T19:15:10;10.13;;;4.43;;
84019;SDS011;74102;49.084;13.694;2023-11-19T19:17:41;4.32;;;1.95;;
84019;SDS011;74102;49.084;13.694;2023-11-19T19:20:09;9.02;;;3.88;;
84019;SDS011;74102;49.084;13.694;2023-11-19T19:22:36;6.03;;;2.75;;
84019;SDS011;74102;49.084;13.694;2023-11-19T19:28:08;12.32;;;5.05;;
84019;SDS011;74102;49.084;13.694;2023-11-19T19:30:37;8.82;;;3.97;;
84019;SDS011;74102;49.084;13.694;2023-11-19T19:33:03;10.02;;;3.40;;
84019;SDS011;74102;49.084;13.694;2023-11-19T19:35:31;13.57;;;6.22;;
84019;SDS011;74102;49.084;13.694;2023-11-19T19:38:04;12.88;;;4.75;;
84019;SDS011;74102;49.084;13.694;2023-11-19T19:40:30;9.05;;;4.00;;
84019;SDS011;74102;49.084;13.694;2023-11-19T19:42:55;8.48;;;4.07;;
84019;SDS011;74102;49.084;13.694;2023-11-19T19:45:23;7.03;;;2.38;;
84019;SDS011;74102;49.084;13.694;2023-11-19T19:47:51;12.88;;;5.85;;
84019;SDS011;74102;49.084;13.694;2023-11-19T19:52:44;14.18;;;6.07;;
84019;SDS011;74102;49.084;13.694;2023-11-19T19:55:10;9.18;;;3.38;;
84019;SDS011;74102;49.084;13.694;2023-11-19T19:57:35;10.27;;;3.25;;
84019;SDS011;74102;49.084;13.694;2023-11-19T20:00:03;17.90;;;7.68;;
84019;SDS011;74102;49.084;13.694;2023-11-19T20:02:35;7.95;;;3.25;;
84019;SDS011;74102;49.084;13.694;2023-11-19T20:05:01;8.65;;;3.17;;
84019;SDS011;74102;49.084;13.694;2023-11-19T20:07:26;26.52;;;8.98;;
84019;SDS011;74102;49.084;13.694;2023-11-19T20:09:59;13.70;;;4.78;;
84019;SDS011;74102;49.084;13.694;2023-11-19T20:12:26;8.00;;;2.25;;
84019;SDS011;74102;49.084;13.694;2023-11-19T20:14:52;13.40;;;5.35;;
84019;SDS011;74102;49.084;13.694;2023-11-19T20:17:19;17.75;;;4.35;;
84019;SDS011;74102;49.084;13.694;2023-11-19T20:19:45;9.90;;;3.25;;
84019;SDS011;74102;49.084;13.694;2023-11-19T20:22:11;6.35;;;2.00;;
84019;SDS011;74102;49.084;13.694;2023-11-19T20:24:37;8.95;;;3.83;;
84019;SDS011;74102;49.084;13.694;2023-11-19T20:27:02;14.35;;;6.68;;
84019;SDS011;74102;49.084;13.694;2023-11-19T20:29:28;8.73;;;3.05;;
84019;SDS011;74102;49.084;13.694;2023-11-19T20:31:54;4.90;;;2.28;;
84019;SDS011;74102;49.084;13.694;2023-11-19T20:34:20;20.42;;;5.28;;
84019;SDS011;74102;49.084;13.694;2023-11-19T20:36:45;10.77;;;4.05;;
84019;SDS011;74102;49.084;13.694;2023-11-19T20:39:11;9.48;;;3.95;;
84019;SDS011;74102;49.084;13.694;2023-11-19T20:41:39;12.63;;;3.72;;
84019;SDS011;74102;49.084;13.694;2023-11-19T20:44:06;14.32;;;5.90;;
84019;SDS011;74102;49.084;13.694;2023-11-19T20:46:33;14.75;;;5.30;;
84019;SDS011;74102;49.084;13.694;2023-11-19T20:49:01;21.08;;;10.68;;
84019;SDS011;74102;49.084;13.694;2023-11-19T20:51:26;12.90;;;6.88;;
84019;SDS011;74102;49.084;13.694;2023-11-19T20:53:54;8.43;;;2.65;;
84019;SDS011;74102;49.084;13.694;2023-11-19T20:56:20;12.45;;;3.80;;
84019;SDS011;74102;49.084;13.694;2023-11-19T20:58:45;10.50;;;3.10;;
84019;SDS011;74102;49.084;13.694;2023-11-19T21:01:20;9.50;;;3.28;;
84019;SDS011;74102;49.084;13.694;2023-11-19T21:03:47;12.25;;;3.53;;
84019;SDS011;74102;49.084;13.694;2023-11-19T21:06:15;10.85;;;4.38;;
84019;SDS011;74102;49.084;13.694;2023-11-19T21:08:41;5.18;;;1.55;;
84019;SDS011;74102;49.084;13.694;2023-11-19T21:11:10;9.68;;;3.80;;
84019;SDS011;74102;49.084;13.694;2023-11-19T21:13:37;8.32;;;3.28;;
84019;SDS011;74102;49.084;13.694;2023-11-19T21:16:03;13.32;;;5.90;;
84019;SDS011;74102;49.084;13.694;2023-11-19T21:18:29;12.68;;;4.53;;
84019;SDS011;74102;49.084;13.694;2023-11-19T21:20:57;11.13;;;3.38;;
84019;SDS011;74102;49.084;13.694;2023-11-19T21:23:23;5.20;;;2.00;;
84019;SDS011;74102;49.084;13.694;2023-11-19T21:25:50;6.25;;;2.20;;
84019;SDS011;74102;49.084;13.694;2023-11-19T21:28:17;5.38;;;1.70;;
84019;SDS011;74102;49.084;13.694;2023-11-19T21:30:42;9.18;;;3.17;;
84019;SDS011;74102;49.084;13.694;2023-11-19T21:33:08;8.48;;;2.63;;
84019;SDS011;74102;49.084;13.694;2023-11-19T21:35:36;10.00;;;2.72;;
84019;SDS011;74102;49.084;13.694;2023-11-19T21:38:02;8.18;;;2.90;;
84019;SDS011;74102;49.084;13.694;2023-11-19T21:40:28;7.22;;;2.03;;
84019;SDS011;74102;49.084;13.694;2023-11-19T21:42:53;4.57;;;1.45;;
84019;SDS011;74102;49.084;13.694;2023-11-19T21:45:21;8.93;;;2.92;;
84019;SDS011;74102;49.084;13.694;2023-11-19T21:47:46;4.78;;;1.80;;
84019;SDS011;74102;49.084;13.694;2023-11-19T21:50:12;6.35;;;2.38;;
84019;SDS011;74102;49.084;13.694;2023-11-19T21:52:37;9.05;;;2.85;;
84019;SDS011;74102;49.084;13.694;2023-11-19T21:55:03;7.13;;;2.15;;
84019;SDS011;74102;49.084;13.694;2023-11-19T21:57:29;12.77;;;5.03;;
84019;SDS011;74102;49.084;13.694;2023-11-19T21:59:56;6.22;;;1.65;;
84019;SDS011;74102;49.084;13.694;2023-11-19T22:02:22;10.98;;;3.80;;
84019;SDS011;74102;49.084;13.694;2023-11-19T22:04:49;11.38;;;4.18;;
84019;SDS011;74102;49.084;13.694;2023-11-19T22:07:14;7.25;;;1.77;;
84019;SDS011;74102;49.084;13.694;2023-11-19T22:09:40;8.35;;;2.20;;
84019;SDS011;74102;49.084;13.694;2023-11-19T22:12:06;8.13;;;2.50;;
84019;SDS011;74102;49.084;13.694;2023-11-19T22:14:31;7.85;;;2.80;;